sensor_id;sensor_type;location;lat;lon;timestamp;P1;durP1;ratioP1;P2;durP2;ratioP2
23400;SDS011;11873;49.300;8.920;2023-05-29T00:02:20;4.00;;;3.60;;
23400;SDS011;11873;49.300;8.920;2023-05-29T00:07:21;5.43;;;4.03;;
23400;SDS011;11873;49.300;8.920;2023-05-29T00:12:21;5.33;;;3.60;;
23400;SDS011;11873;49.300;8.920;2023-05-29T00:17:21;4.87;;;3.47;;
23400;SDS011;11873;49.300;8.920;2023-05-29T00:22:21;7.73;;;3.77;;
23400;SDS011;11873;49.300;8.920;2023-05-29T00:27:21;4.27;;;3.80;;
23400;SDS011;11873;49.300;8.920;2023-05-29T00:32:21;5.60;;;4.40;;
23400;SDS011;11873;49.300;8.920;2023-05-29T00:37:22;5.37;;;3.93;;
23400;SDS011;11873;49.300;8.920;2023-05-29T00:42:22;4.43;;;3.37;;
23400;SDS011;11873;49.300;8.920;2023-05-29T00:47:22;5.03;;;3.33;;
23400;SDS011;11873;49.300;8.920;2023-05-29T00:52:23;4.17;;;3.50;;
23400;SDS011;11873;49.300;8.920;2023-05-29T00:57:24;5.20;;;3.90;;
23400;SDS011;11873;49.300;8.920;2023-05-29T01:02:25;6.33;;;3.63;;
23400;SDS011;11873;49.300;8.920;2023-05-29T01:07:26;5.37;;;3.40;;
23400;SDS011;11873;49.300;8.920;2023-05-29T01:27:45;3.40;;;3.10;;
23400;SDS011;11873;49.300;8.920;2023-05-29T01:32:46;6.33;;;3.50;;
23400;SDS011;11873;49.300;8.920;2023-05-29T01:37:46;3.40;;;3.10;;
23400;SDS011;11873;49.300;8.920;2023-05-29T01:42:47;6.10;;;3.20;;
23400;SDS011;11873;49.300;8.920;2023-05-29T01:47:47;5.33;;;3.47;;
23400;SDS011;11873;49.300;8.920;2023-05-29T01:52:47;3.43;;;3.03;;
23400;SDS011;11873;49.300;8.920;2023-05-29T01:57:47;4.27;;;3.00;;
23400;SDS011;11873;49.300;8.920;2023-05-29T02:02:48;3.80;;;3.20;;
23400;SDS011;11873;49.300;8.920;2023-05-29T02:07:49;4.17;;;3.00;;
23400;SDS011;11873;49.300;8.920;2023-05-29T02:12:49;3.63;;;3.10;;
23400;SDS011;11873;49.300;8.920;2023-05-29T02:17:49;4.37;;;3.77;;
23400;SDS011;11873;49.300;8.920;2023-05-29T02:22:50;3.93;;;3.30;;
23400;SDS011;11873;49.300;8.920;2023-05-29T02:27:50;3.97;;;2.87;;
23400;SDS011;11873;49.300;8.920;2023-05-29T02:32:50;5.17;;;3.10;;
23400;SDS011;11873;49.300;8.920;2023-05-29T02:37:50;3.00;;;2.70;;
23400;SDS011;11873;49.300;8.920;2023-05-29T02:42:50;3.90;;;2.87;;
23400;SDS011;11873;49.300;8.920;2023-05-29T02:47:50;4.57;;;3.07;;
23400;SDS011;11873;49.300;8.920;2023-05-29T02:52:51;3.33;;;3.03;;
23400;SDS011;11873;49.300;8.920;2023-05-29T02:57:51;3.80;;;3.17;;
23400;SDS011;11873;49.300;8.920;2023-05-29T03:02:51;4.33;;;2.80;;
23400;SDS011;11873;49.300;8.920;2023-05-29T03:07:51;4.30;;;3.60;;
23400;SDS011;11873;49.300;8.920;2023-05-29T03:12:51;4.70;;;3.10;;
23400;SDS011;11873;49.300;8.920;2023-05-29T03:17:51;6.63;;;3.33;;
23400;SDS011;11873;49.300;8.920;2023-05-29T03:22:52;5.77;;;3.13;;
23400;SDS011;11873;49.300;8.920;2023-05-29T03:27:52;4.73;;;2.83;;
23400;SDS011;11873;49.300;8.920;2023-05-29T03:32:52;3.47;;;2.97;;
23400;SDS011;11873;49.300;8.920;2023-05-29T03:37:52;3.47;;;2.93;;
23400;SDS011;11873;49.300;8.920;2023-05-29T03:42:52;3.67;;;3.00;;
23400;SDS011;11873;49.300;8.920;2023-05-29T03:47:52;3.93;;;2.73;;
23400;SDS011;11873;49.300;8.920;2023-05-29T03:52:53;3.10;;;2.40;;
23400;SDS011;11873;49.300;8.920;2023-05-29T03:57:53;3.87;;;2.60;;
23400;SDS011;11873;49.300;8.920;2023-05-29T04:02:54;5.33;;;3.00;;
23400;SDS011;11873;49.300;8.920;2023-05-29T04:07:55;4.23;;;2.80;;
23400;SDS011;11873;49.300;8.920;2023-05-29T04:12:55;5.13;;;2.93;;
23400;SDS011;11873;49.300;8.920;2023-05-29T04:17:55;3.00;;;2.70;;
23400;SDS011;11873;49.300;8.920;2023-05-29T04:22:56;3.17;;;2.80;;
23400;SDS011;11873;49.300;8.920;2023-05-29T04:27:56;2.93;;;2.60;;
23400;SDS011;11873;49.300;8.920;2023-05-29T04:32:56;4.07;;;3.07;;
23400;SDS011;11873;49.300;8.920;2023-05-29T04:37:56;3.07;;;2.77;;
23400;SDS011;11873;49.300;8.920;2023-05-29T04:42:56;4.03;;;2.63;;
23400;SDS011;11873;49.300;8.920;2023-05-29T04:47:57;3.60;;;2.50;;
23400;SDS011;11873;49.300;8.920;2023-05-29T04:52:57;5.00;;;3.17;;
23400;SDS011;11873;49.300;8.920;2023-05-29T04:57:57;6.67;;;3.00;;
23400;SDS011;11873;49.300;8.920;2023-05-29T05:02:57;4.53;;;3.40;;
23400;SDS011;11873;49.300;8.920;2023-05-29T05:07:57;4.27;;;3.03;;
23400;SDS011;11873;49.300;8.920;2023-05-29T05:12:57;5.03;;;2.93;;
23400;SDS011;11873;49.300;8.920;2023-05-29T05:17:57;5.20;;;3.07;;
23400;SDS011;11873;49.300;8.920;2023-05-29T05:22:58;5.60;;;3.67;;
23400;SDS011;11873;49.300;8.920;2023-05-29T05:27:58;4.13;;;3.37;;
23400;SDS011;11873;49.300;8.920;2023-05-29T05:32:58;5.23;;;3.13;;
23400;SDS011;11873;49.300;8.920;2023-05-29T05:37:58;5.30;;;2.80;;
23400;SDS011;11873;49.300;8.920;2023-05-29T05:42:58;4.47;;;3.10;;
23400;SDS011;11873;49.300;8.920;2023-05-29T05:47:58;5.33;;;3.00;;
23400;SDS011;11873;49.300;8.920;2023-05-29T05:52:59;3.70;;;2.80;;
23400;SDS011;11873;49.300;8.920;2023-05-29T05:57:59;4.13;;;2.90;;
23400;SDS011;11873;49.300;8.920;2023-05-29T06:02:59;4.37;;;2.80;;
23400;SDS011;11873;49.300;8.920;2023-05-29T06:07:59;4.43;;;2.93;;
23400;SDS011;11873;49.300;8.920;2023-05-29T06:12:59;3.00;;;2.70;;
23400;SDS011;11873;49.300;8.920;2023-05-29T06:18:00;3.33;;;2.60;;
23400;SDS011;11873;49.300;8.920;2023-05-29T06:23:00;3.07;;;2.60;;
23400;SDS011;11873;49.300;8.920;2023-05-29T06:28:00;4.23;;;2.60;;
23400;SDS011;11873;49.300;8.920;2023-05-29T06:33:00;4.73;;;2.50;;
23400;SDS011;11873;49.300;8.920;2023-05-29T06:38:00;2.93;;;2.53;;
23400;SDS011;11873;49.300;8.920;2023-05-29T06:43:01;3.13;;;2.70;;
23400;SDS011;11873;49.300;8.920;2023-05-29T06:48:01;2.57;;;2.20;;
23400;SDS011;11873;49.300;8.920;2023-05-29T06:53:01;3.33;;;2.57;;
23400;SDS011;11873;49.300;8.920;2023-05-29T06:58:01;3.47;;;2.40;;
23400;SDS011;11873;49.300;8.920;2023-05-29T07:03:01;2.50;;;2.10;;
23400;SDS011;11873;49.300;8.920;2023-05-29T07:08:01;2.53;;;2.33;;
23400;SDS011;11873;49.300;8.920;2023-05-29T07:13:02;4.27;;;3.20;;
23400;SDS011;11873;49.300;8.920;2023-05-29T07:18:02;2.10;;;1.97;;
23400;SDS011;11873;49.300;8.920;2023-05-29T07:23:02;3.53;;;1.93;;
23400;SDS011;11873;49.300;8.920;2023-05-29T07:28:02;4.20;;;2.23;;
23400;SDS011;11873;49.300;8.920;2023-05-29T07:33:03;3.63;;;2.30;;
23400;SDS011;11873;49.300;8.920;2023-05-29T07:38:03;3.33;;;2.20;;
23400;SDS011;11873;49.300;8.920;2023-05-29T07:43:03;2.53;;;2.33;;
23400;SDS011;11873;49.300;8.920;2023-05-29T07:48:03;2.23;;;1.97;;
23400;SDS011;11873;49.300;8.920;2023-05-29T07:53:03;2.93;;;2.33;;
23400;SDS011;11873;49.300;8.920;2023-05-29T07:58:04;3.83;;;2.10;;
23400;SDS011;11873;49.300;8.920;2023-05-29T08:03:04;2.33;;;2.10;;
23400;SDS011;11873;49.300;8.920;2023-05-29T08:08:04;2.37;;;2.10;;
23400;SDS011;11873;49.300;8.920;2023-05-29T08:13:04;6.83;;;2.23;;
23400;SDS011;11873;49.300;8.920;2023-05-29T08:18:04;3.33;;;2.33;;
23400;SDS011;11873;49.300;8.920;2023-05-29T08:23:05;2.43;;;2.10;;
23400;SDS011;11873;49.300;8.920;2023-05-29T08:28:05;2.17;;;1.87;;
23400;SDS011;11873;49.300;8.920;2023-05-29T08:33:05;4.43;;;2.37;;
23400;SDS011;11873;49.300;8.920;2023-05-29T08:38:05;2.40;;;2.10;;
23400;SDS011;11873;49.300;8.920;2023-05-29T08:43:16;6.20;;;2.10;;
23400;SDS011;11873;49.300;8.920;2023-05-29T08:48:17;1.70;;;1.60;;
23400;SDS011;11873;49.300;8.920;2023-05-29T08:53:18;1.87;;;1.60;;
23400;SDS011;11873;49.300;8.920;2023-05-29T08:58:19;1.60;;;1.40;;
23400;SDS011;11873;49.300;8.920;2023-05-29T09:03:19;2.40;;;2.20;;
23400;SDS011;11873;49.300;8.920;2023-05-29T09:08:19;4.63;;;2.07;;
23400;SDS011;11873;49.300;8.920;2023-05-29T09:13:19;3.37;;;1.73;;
23400;SDS011;11873;49.300;8.920;2023-05-29T09:18:19;2.43;;;1.83;;
23400;SDS011;11873;49.300;8.920;2023-05-29T09:23:19;1.70;;;1.60;;
23400;SDS011;11873;49.300;8.920;2023-05-29T09:28:23;3.03;;;1.83;;
23400;SDS011;11873;49.300;8.920;2023-05-29T09:33:23;2.60;;;1.83;;
23400;SDS011;11873;49.300;8.920;2023-05-29T09:38:24;2.30;;;2.10;;
23400;SDS011;11873;49.300;8.920;2023-05-29T09:43:25;3.03;;;2.13;;
23400;SDS011;11873;49.300;8.920;2023-05-29T09:48:25;2.83;;;2.50;;
23400;SDS011;11873;49.300;8.920;2023-05-29T09:53:25;1.43;;;1.33;;
23400;SDS011;11873;49.300;8.920;2023-05-29T09:58:26;3.37;;;1.50;;
23400;SDS011;11873;49.300;8.920;2023-05-29T10:03:26;3.43;;;2.07;;
23400;SDS011;11873;49.300;8.920;2023-05-29T10:08:26;3.13;;;2.10;;
23400;SDS011;11873;49.300;8.920;2023-05-29T10:13:28;0.83;;;0.83;;
23400;SDS011;11873;49.300;8.920;2023-05-29T10:18:37;4.87;;;2.17;;
23400;SDS011;11873;49.300;8.920;2023-05-29T10:23:38;3.33;;;2.30;;
23400;SDS011;11873;49.300;8.920;2023-05-29T10:28:41;2.40;;;2.00;;
23400;SDS011;11873;49.300;8.920;2023-05-29T10:33:56;2.47;;;2.27;;
23400;SDS011;11873;49.300;8.920;2023-05-29T10:39:00;5.07;;;2.20;;
23400;SDS011;11873;49.300;8.920;2023-05-29T10:44:01;5.33;;;2.60;;
23400;SDS011;11873;49.300;8.920;2023-05-29T10:49:01;2.73;;;2.03;;
23400;SDS011;11873;49.300;8.920;2023-05-29T10:54:01;2.83;;;2.47;;
23400;SDS011;11873;49.300;8.920;2023-05-29T10:59:06;3.50;;;2.10;;
23400;SDS011;11873;49.300;8.920;2023-05-29T11:09:35;2.90;;;2.10;;
23400;SDS011;11873;49.300;8.920;2023-05-29T11:14:52;2.30;;;2.07;;
23400;SDS011;11873;49.300;8.920;2023-05-29T11:19:53;1.50;;;1.40;;
23400;SDS011;11873;49.300;8.920;2023-05-29T11:24:53;3.07;;;2.33;;
23400;SDS011;11873;49.300;8.920;2023-05-29T11:29:54;2.30;;;2.10;;
23400;SDS011;11873;49.300;8.920;2023-05-29T11:34:55;4.33;;;2.70;;
23400;SDS011;11873;49.300;8.920;2023-05-29T11:39:56;4.20;;;2.73;;
23400;SDS011;11873;49.300;8.920;2023-05-29T11:45:08;1.87;;;1.77;;
23400;SDS011;11873;49.300;8.920;2023-05-29T11:50:18;2.93;;;1.90;;
23400;SDS011;11873;49.300;8.920;2023-05-29T11:55:19;2.50;;;2.10;;
23400;SDS011;11873;49.300;8.920;2023-05-29T12:00:22;2.37;;;2.03;;
23400;SDS011;11873;49.300;8.920;2023-05-29T12:05:22;4.43;;;2.23;;
23400;SDS011;11873;49.300;8.920;2023-05-29T12:10:23;3.03;;;2.80;;
23400;SDS011;11873;49.300;8.920;2023-05-29T12:15:23;2.57;;;2.27;;
23400;SDS011;11873;49.300;8.920;2023-05-29T12:20:24;2.27;;;2.07;;
23400;SDS011;11873;49.300;8.920;2023-05-29T12:25:25;0.83;;;0.73;;
23400;SDS011;11873;49.300;8.920;2023-05-29T12:30:25;3.47;;;2.40;;
23400;SDS011;11873;49.300;8.920;2023-05-29T12:35:26;3.20;;;1.70;;
23400;SDS011;11873;49.300;8.920;2023-05-29T12:40:27;2.70;;;2.30;;
23400;SDS011;11873;49.300;8.920;2023-05-29T12:45:28;2.03;;;1.90;;
23400;SDS011;11873;49.300;8.920;2023-05-29T12:50:29;2.43;;;1.90;;
23400;SDS011;11873;49.300;8.920;2023-05-29T12:55:30;4.50;;;2.10;;
23400;SDS011;11873;49.300;8.920;2023-05-29T13:00:31;3.27;;;2.63;;
23400;SDS011;11873;49.300;8.920;2023-05-29T13:05:31;2.87;;;1.67;;
23400;SDS011;11873;49.300;8.920;2023-05-29T13:10:32;1.57;;;1.27;;
23400;SDS011;11873;49.300;8.920;2023-05-29T13:15:32;2.40;;;1.80;;
23400;SDS011;11873;49.300;8.920;2023-05-29T13:20:32;1.43;;;1.23;;
23400;SDS011;11873;49.300;8.920;2023-05-29T13:25:32;1.80;;;1.70;;
23400;SDS011;11873;49.300;8.920;2023-05-29T13:30:32;2.00;;;1.77;;
23400;SDS011;11873;49.300;8.920;2023-05-29T13:35:33;2.97;;;2.10;;
23400;SDS011;11873;49.300;8.920;2023-05-29T13:40:33;1.83;;;1.73;;
23400;SDS011;11873;49.300;8.920;2023-05-29T13:45:33;3.20;;;2.53;;
23400;SDS011;11873;49.300;8.920;2023-05-29T13:50:33;1.80;;;1.67;;
23400;SDS011;11873;49.300;8.920;2023-05-29T13:55:33;1.43;;;1.37;;
23400;SDS011;11873;49.300;8.920;2023-05-29T14:00:33;3.67;;;1.97;;
23400;SDS011;11873;49.300;8.920;2023-05-29T14:05:34;1.43;;;1.33;;
23400;SDS011;11873;49.300;8.920;2023-05-29T14:10:34;2.50;;;2.30;;
23400;SDS011;11873;49.300;8.920;2023-05-29T14:15:34;1.93;;;1.60;;
23400;SDS011;11873;49.300;8.920;2023-05-29T14:20:34;2.07;;;1.50;;
23400;SDS011;11873;49.300;8.920;2023-05-29T14:25:34;2.63;;;2.17;;
23400;SDS011;11873;49.300;8.920;2023-05-29T14:30:35;3.40;;;2.00;;
23400;SDS011;11873;49.300;8.920;2023-05-29T14:35:35;1.70;;;1.60;;
23400;SDS011;11873;49.300;8.920;2023-05-29T14:40:35;3.73;;;1.80;;
23400;SDS011;11873;49.300;8.920;2023-05-29T14:45:35;2.93;;;2.20;;
23400;SDS011;11873;49.300;8.920;2023-05-29T14:50:35;2.27;;;1.77;;
23400;SDS011;11873;49.300;8.920;2023-05-29T14:55:35;5.17;;;2.87;;
23400;SDS011;11873;49.300;8.920;2023-05-29T15:00:36;2.30;;;2.07;;
23400;SDS011;11873;49.300;8.920;2023-05-29T15:05:36;2.20;;;1.93;;
23400;SDS011;11873;49.300;8.920;2023-05-29T15:10:36;3.47;;;2.33;;
23400;SDS011;11873;49.300;8.920;2023-05-29T15:15:36;2.23;;;1.60;;
23400;SDS011;11873;49.300;8.920;2023-05-29T15:20:36;2.00;;;1.77;;
23400;SDS011;11873;49.300;8.920;2023-05-29T15:25:36;1.53;;;1.43;;
23400;SDS011;11873;49.300;8.920;2023-05-29T15:30:36;2.57;;;1.93;;
23400;SDS011;11873;49.300;8.920;2023-05-29T15:35:37;1.93;;;1.83;;
23400;SDS011;11873;49.300;8.920;2023-05-29T15:40:37;3.37;;;2.13;;
23400;SDS011;11873;49.300;8.920;2023-05-29T15:45:37;1.90;;;1.60;;
23400;SDS011;11873;49.300;8.920;2023-05-29T15:50:37;1.93;;;1.83;;
23400;SDS011;11873;49.300;8.920;2023-05-29T15:55:38;1.80;;;1.70;;
23400;SDS011;11873;49.300;8.920;2023-05-29T16:00:38;3.63;;;3.33;;
23400;SDS011;11873;49.300;8.920;2023-05-29T16:05:38;3.40;;;2.40;;
23400;SDS011;11873;49.300;8.920;2023-05-29T16:10:38;2.67;;;2.33;;
23400;SDS011;11873;49.300;8.920;2023-05-29T16:15:38;2.53;;;2.33;;
23400;SDS011;11873;49.300;8.920;2023-05-29T16:20:38;2.30;;;1.83;;
23400;SDS011;11873;49.300;8.920;2023-05-29T16:25:39;2.53;;;2.13;;
23400;SDS011;11873;49.300;8.920;2023-05-29T16:30:39;2.60;;;2.17;;
23400;SDS011;11873;49.300;8.920;2023-05-29T16:35:39;3.40;;;2.33;;
23400;SDS011;11873;49.300;8.920;2023-05-29T16:40:39;3.90;;;1.70;;
23400;SDS011;11873;49.300;8.920;2023-05-29T16:45:39;2.93;;;2.63;;
23400;SDS011;11873;49.300;8.920;2023-05-29T16:50:39;2.57;;;2.37;;
23400;SDS011;11873;49.300;8.920;2023-05-29T16:55:40;2.70;;;2.23;;
23400;SDS011;11873;49.300;8.920;2023-05-29T17:00:40;4.37;;;2.83;;
23400;SDS011;11873;49.300;8.920;2023-05-29T17:05:40;3.87;;;2.67;;
23400;SDS011;11873;49.300;8.920;2023-05-29T17:10:40;2.67;;;2.13;;
23400;SDS011;11873;49.300;8.920;2023-05-29T17:15:40;2.50;;;2.17;;
23400;SDS011;11873;49.300;8.920;2023-05-29T17:20:40;3.43;;;3.13;;
23400;SDS011;11873;49.300;8.920;2023-05-29T17:25:41;3.13;;;2.60;;
23400;SDS011;11873;49.300;8.920;2023-05-29T17:30:41;4.33;;;2.80;;
23400;SDS011;11873;49.300;8.920;2023-05-29T17:35:41;2.83;;;2.53;;
23400;SDS011;11873;49.300;8.920;2023-05-29T17:40:41;3.33;;;2.73;;
23400;SDS011;11873;49.300;8.920;2023-05-29T17:45:41;3.60;;;3.00;;
23400;SDS011;11873;49.300;8.920;2023-05-29T17:50:41;4.80;;;2.93;;
23400;SDS011;11873;49.300;8.920;2023-05-29T17:55:42;2.67;;;2.40;;
23400;SDS011;11873;49.300;8.920;2023-05-29T18:00:42;5.30;;;2.90;;
23400;SDS011;11873;49.300;8.920;2023-05-29T18:05:42;2.90;;;2.60;;
23400;SDS011;11873;49.300;8.920;2023-05-29T18:10:42;2.57;;;2.30;;
23400;SDS011;11873;49.300;8.920;2023-05-29T18:15:42;3.17;;;2.87;;
23400;SDS011;11873;49.300;8.920;2023-05-29T18:20:43;3.27;;;3.00;;
23400;SDS011;11873;49.300;8.920;2023-05-29T18:25:43;2.90;;;2.40;;
23400;SDS011;11873;49.300;8.920;2023-05-29T18:30:43;2.70;;;2.50;;
23400;SDS011;11873;49.300;8.920;2023-05-29T18:35:44;3.17;;;2.83;;
23400;SDS011;11873;49.300;8.920;2023-05-29T18:40:44;6.40;;;2.90;;
23400;SDS011;11873;49.300;8.920;2023-05-29T18:45:45;5.30;;;2.90;;
23400;SDS011;11873;49.300;8.920;2023-05-29T18:50:45;3.20;;;2.90;;
23400;SDS011;11873;49.300;8.920;2023-05-29T18:55:45;3.57;;;2.90;;
23400;SDS011;11873;49.300;8.920;2023-05-29T19:00:45;3.77;;;3.03;;
23400;SDS011;11873;49.300;8.920;2023-05-29T19:05:45;3.63;;;3.07;;
23400;SDS011;11873;49.300;8.920;2023-05-29T19:10:45;4.27;;;3.10;;
23400;SDS011;11873;49.300;8.920;2023-05-29T19:15:46;3.37;;;2.60;;
23400;SDS011;11873;49.300;8.920;2023-05-29T19:20:46;3.40;;;3.10;;
23400;SDS011;11873;49.300;8.920;2023-05-29T19:25:46;4.87;;;2.90;;
23400;SDS011;11873;49.300;8.920;2023-05-29T19:30:46;4.40;;;3.70;;
23400;SDS011;11873;49.300;8.920;2023-05-29T19:35:46;3.00;;;2.70;;
23400;SDS011;11873;49.300;8.920;2023-05-29T19:40:46;3.67;;;3.03;;
23400;SDS011;11873;49.300;8.920;2023-05-29T19:45:47;3.43;;;3.13;;
23400;SDS011;11873;49.300;8.920;2023-05-29T19:50:47;2.90;;;2.70;;
23400;SDS011;11873;49.300;8.920;2023-05-29T19:55:47;5.13;;;3.47;;
23400;SDS011;11873;49.300;8.920;2023-05-29T20:00:47;3.83;;;3.23;;
23400;SDS011;11873;49.300;8.920;2023-05-29T20:05:47;7.97;;;3.27;;
23400;SDS011;11873;49.300;8.920;2023-05-29T20:10:48;5.57;;;3.27;;
23400;SDS011;11873;49.300;8.920;2023-05-29T20:15:48;3.77;;;3.40;;
23400;SDS011;11873;49.300;8.920;2023-05-29T20:20:48;4.57;;;3.10;;
23400;SDS011;11873;49.300;8.920;2023-05-29T20:25:48;3.90;;;3.47;;
23400;SDS011;11873;49.300;8.920;2023-05-29T20:30:48;6.40;;;3.60;;
23400;SDS011;11873;49.300;8.920;2023-05-29T20:35:48;4.27;;;3.67;;
23400;SDS011;11873;49.300;8.920;2023-05-29T20:40:49;4.20;;;3.00;;
23400;SDS011;11873;49.300;8.920;2023-05-29T20:45:49;5.23;;;3.70;;
23400;SDS011;11873;49.300;8.920;2023-05-29T20:50:49;4.57;;;3.40;;
23400;SDS011;11873;49.300;8.920;2023-05-29T20:55:50;4.67;;;3.63;;
23400;SDS011;11873;49.300;8.920;2023-05-29T21:00:50;3.83;;;3.23;;
23400;SDS011;11873;49.300;8.920;2023-05-29T21:05:50;4.10;;;3.03;;
23400;SDS011;11873;49.300;8.920;2023-05-29T21:10:50;5.37;;;3.00;;
23400;SDS011;11873;49.300;8.920;2023-05-29T21:15:50;4.90;;;3.33;;
23400;SDS011;11873;49.300;8.920;2023-05-29T21:20:51;5.03;;;3.10;;
23400;SDS011;11873;49.300;8.920;2023-05-29T21:25:51;5.10;;;3.33;;
23400;SDS011;11873;49.300;8.920;2023-05-29T21:30:51;4.00;;;3.53;;
23400;SDS011;11873;49.300;8.920;2023-05-29T21:35:51;3.70;;;3.30;;
23400;SDS011;11873;49.300;8.920;2023-05-29T21:40:52;3.40;;;3.10;;
23400;SDS011;11873;49.300;8.920;2023-05-29T21:45:52;6.87;;;4.17;;
23400;SDS011;11873;49.300;8.920;2023-05-29T21:50:52;5.03;;;4.10;;
23400;SDS011;11873;49.300;8.920;2023-05-29T21:55:52;4.63;;;3.73;;
23400;SDS011;11873;49.300;8.920;2023-05-29T22:00:53;5.57;;;3.57;;
23400;SDS011;11873;49.300;8.920;2023-05-29T22:05:53;7.33;;;4.07;;
23400;SDS011;11873;49.300;8.920;2023-05-29T22:10:53;3.67;;;3.00;;
23400;SDS011;11873;49.300;8.920;2023-05-29T22:15:53;4.47;;;3.50;;
23400;SDS011;11873;49.300;8.920;2023-05-29T22:20:53;4.30;;;3.53;;
23400;SDS011;11873;49.300;8.920;2023-05-29T22:25:53;3.77;;;3.23;;
23400;SDS011;11873;49.300;8.920;2023-05-29T22:30:54;5.30;;;3.67;;
23400;SDS011;11873;49.300;8.920;2023-05-29T22:35:54;4.93;;;3.43;;
23400;SDS011;11873;49.300;8.920;2023-05-29T22:40:55;4.80;;;3.47;;
23400;SDS011;11873;49.300;8.920;2023-05-29T22:45:55;5.23;;;3.33;;
23400;SDS011;11873;49.300;8.920;2023-05-29T22:50:55;3.67;;;3.13;;
23400;SDS011;11873;49.300;8.920;2023-05-29T22:55:55;3.70;;;2.70;;
23400;SDS011;11873;49.300;8.920;2023-05-29T23:00:56;3.17;;;2.73;;
23400;SDS011;11873;49.300;8.920;2023-05-29T23:05:56;3.90;;;2.83;;
23400;SDS011;11873;49.300;8.920;2023-05-29T23:10:56;4.43;;;2.90;;
23400;SDS011;11873;49.300;8.920;2023-05-29T23:15:56;4.87;;;2.97;;
23400;SDS011;11873;49.300;8.920;2023-05-29T23:20:56;5.90;;;3.30;;
23400;SDS011;11873;49.300;8.920;2023-05-29T23:25:56;4.87;;;3.37;;
23400;SDS011;11873;49.300;8.920;2023-05-29T23:30:57;3.47;;;2.57;;
23400;SDS011;11873;49.300;8.920;2023-05-29T23:35:57;4.23;;;2.80;;
23400;SDS011;11873;49.300;8.920;2023-05-29T23:40:57;4.00;;;3.00;;
23400;SDS011;11873;49.300;8.920;2023-05-29T23:45:57;5.77;;;2.87;;
23400;SDS011;11873;49.300;8.920;2023-05-29T23:50:57;3.17;;;2.53;;
23400;SDS011;11873;49.300;8.920;2023-05-29T23:55:57;3.10;;;2.80;;
